createdAt,value
2022-10-23T00:00:41.832Z,32
2022-10-23T00:01:45.883Z,28
2022-10-23T00:02:50.146Z,33
2022-10-23T00:03:54.629Z,34
2022-10-23T00:05:06.878Z,31
2022-10-23T00:06:10.969Z,32
2022-10-23T00:07:20.821Z,25
2022-10-23T00:08:25.203Z,26
2022-10-23T00:09:29.805Z,29
2022-10-23T00:10:34.269Z,25
2022-10-23T00:11:38.393Z,33
2022-10-23T00:12:42.814Z,35
2022-10-23T00:13:47.165Z,26
2022-10-23T00:14:51.297Z,29
2022-10-23T00:15:55.374Z,26
2022-10-23T00:16:59.529Z,27
2022-10-23T00:18:04.013Z,31
2022-10-23T00:19:08.253Z,34
2022-10-23T00:20:12.708Z,38
2022-10-23T00:21:16.854Z,37
2022-10-23T00:22:20.927Z,30
2022-10-23T00:23:25.376Z,29
2022-10-23T00:24:29.542Z,26
2022-10-23T00:25:33.528Z,30
2022-10-23T00:26:37.664Z,25
2022-10-23T00:27:41.988Z,25
2022-10-23T00:28:45.873Z,31
2022-10-23T00:29:50.190Z,31
2022-10-23T00:30:54.617Z,36
2022-10-23T00:31:58.698Z,34
2022-10-23T00:33:02.876Z,33
2022-10-23T00:34:07.020Z,36
2022-10-23T00:35:11.120Z,39
2022-10-23T00:36:15.272Z,28
2022-10-23T00:37:19.390Z,28
2022-10-23T00:38:23.602Z,31
2022-10-23T00:39:27.808Z,29
2022-10-23T00:40:32.430Z,34
2022-10-23T00:41:36.528Z,27
2022-10-23T00:42:40.787Z,32
2022-10-23T00:43:44.608Z,37
2022-10-23T00:44:59.552Z,33
2022-10-23T00:46:09.189Z,31
2022-10-23T00:47:13.444Z,33
2022-10-23T00:48:17.948Z,26
2022-10-23T00:49:22.013Z,28
2022-10-23T00:50:26.443Z,28
2022-10-23T00:51:30.488Z,31
2022-10-23T00:52:34.577Z,25
2022-10-23T00:53:38.726Z,30
2022-10-23T00:54:42.784Z,31
2022-10-23T00:55:46.984Z,33
2022-10-23T00:56:51.237Z,36
2022-10-23T00:57:55.856Z,37
2022-10-23T00:59:00.553Z,41
2022-10-23T01:00:05.130Z,37
2022-10-23T01:01:09.802Z,39
2022-10-23T01:02:16.925Z,30
2022-10-23T01:03:20.936Z,39
2022-10-23T01:04:25.129Z,36
2022-10-23T01:05:29.196Z,40
2022-10-23T01:06:33.352Z,30
2022-10-23T01:07:37.385Z,27
2022-10-23T01:08:46.632Z,32
2022-10-23T01:09:53.817Z,38
2022-10-23T01:11:01.037Z,35
2022-10-23T01:12:10.736Z,26
2022-10-23T01:13:19.929Z,27
2022-10-23T01:14:32.388Z,36
2022-10-23T01:15:47.180Z,33
2022-10-23T01:16:54.504Z,33
2022-10-23T01:18:01.700Z,36
2022-10-23T01:19:14.002Z,38
2022-10-23T01:20:23.616Z,32
2022-10-23T01:21:33.129Z,35
2022-10-23T01:22:47.872Z,30
2022-10-23T01:24:00.222Z,32
2022-10-23T01:25:09.556Z,37
2022-10-23T01:26:19.274Z,25
2022-10-23T01:27:23.454Z,35
2022-10-23T01:28:27.680Z,35
2022-10-23T01:29:32.377Z,38
2022-10-23T01:30:36.859Z,39
2022-10-23T01:31:40.956Z,37
2022-10-23T01:32:48.109Z,32
2022-10-23T01:33:55.284Z,38
2022-10-23T01:34:59.413Z,38
2022-10-23T01:36:09.101Z,36
2022-10-23T01:37:13.160Z,35
2022-10-23T01:38:17.633Z,36
2022-10-23T01:39:21.701Z,30
2022-10-23T01:40:25.756Z,35
2022-10-23T01:41:36.009Z,42
2022-10-23T01:42:40.245Z,39
2022-10-23T01:43:44.372Z,33
2022-10-23T01:44:54.453Z,41
2022-10-23T01:45:58.528Z,37
2022-10-23T01:47:02.593Z,36
2022-10-23T01:48:06.686Z,38
2022-10-23T01:49:10.924Z,42
2022-10-23T01:50:15.386Z,37
2022-10-23T01:51:19.428Z,36
2022-10-23T01:52:23.652Z,34
2022-10-23T01:53:27.964Z,36
2022-10-23T01:54:32.083Z,40
2022-10-23T01:55:36.203Z,36
2022-10-23T01:56:40.245Z,39
2022-10-23T01:57:44.648Z,34
2022-10-23T01:58:48.546Z,32
2022-10-23T01:59:53.145Z,27
2022-10-23T02:01:02.895Z,27
2022-10-23T02:02:07.165Z,29
2022-10-23T02:03:11.115Z,36
2022-10-23T02:04:15.297Z,25
2022-10-23T02:05:19.848Z,34
2022-10-23T02:06:24.247Z,37
2022-10-23T02:07:28.728Z,42
2022-10-23T02:08:32.888Z,36
2022-10-23T02:09:36.907Z,42
2022-10-23T02:10:41.033Z,37
2022-10-23T02:11:50.873Z,47
2022-10-23T02:12:55.312Z,44
2022-10-23T02:14:01.977Z,40
2022-10-23T02:15:09.176Z,35
2022-10-23T02:16:18.956Z,32
2022-10-23T02:17:33.390Z,40
2022-10-23T02:18:37.487Z,43
2022-10-23T02:19:44.724Z,44
2022-10-23T02:20:51.797Z,39
2022-10-23T02:21:55.912Z,38
2022-10-23T02:23:08.392Z,50
2022-10-23T02:24:17.908Z,42
2022-10-23T02:25:22.047Z,39
2022-10-23T02:26:28.869Z,37
2022-10-23T02:27:41.225Z,35
2022-10-23T02:28:45.296Z,41
2022-10-23T02:29:49.373Z,35
2022-10-23T02:30:53.556Z,41
2022-10-23T02:31:57.608Z,42
2022-10-23T02:33:01.792Z,41
2022-10-23T02:34:05.999Z,43
2022-10-23T02:35:10.488Z,41
2022-10-23T02:36:14.580Z,40
2022-10-23T02:37:19.142Z,40
2022-10-23T02:38:23.164Z,35
2022-10-23T02:39:33.176Z,38
2022-10-23T02:40:37.207Z,43
2022-10-23T02:41:41.392Z,37
2022-10-23T02:42:53.677Z,42
2022-10-23T02:44:03.347Z,43
2022-10-23T02:45:10.484Z,39
2022-10-23T02:46:19.796Z,43
2022-10-23T02:47:23.860Z,35
2022-10-23T02:48:33.440Z,39
2022-10-23T02:49:40.558Z,35
2022-10-23T02:50:55.304Z,35
2022-10-23T02:52:07.646Z,41
2022-10-23T02:53:19.856Z,40
2022-10-23T02:54:29.432Z,47
2022-10-23T02:55:44.126Z,42
2022-10-23T02:56:59.034Z,45
2022-10-23T02:58:06.162Z,40
2022-10-23T02:59:15.835Z,42
2022-10-23T03:00:25.051Z,51
2022-10-23T03:01:29.521Z,51
2022-10-23T03:02:38.624Z,52
2022-10-23T03:03:47.846Z,47
2022-10-23T03:04:55.038Z,45
2022-10-23T03:05:59.183Z,48
2022-10-23T03:07:03.233Z,52
2022-10-23T03:08:07.326Z,45
2022-10-23T03:09:11.486Z,47
2022-10-23T03:10:15.566Z,47
2022-10-23T03:11:19.654Z,47
2022-10-23T03:12:23.774Z,51
2022-10-23T03:13:28.213Z,55
2022-10-23T03:14:32.731Z,50
2022-10-23T03:15:36.851Z,50
2022-10-23T03:16:40.883Z,45
2022-10-23T03:17:44.962Z,44
2022-10-23T03:18:49.182Z,45
2022-10-23T03:19:53.214Z,52
2022-10-23T03:20:57.266Z,46
2022-10-23T03:22:01.493Z,48
2022-10-23T03:23:06.035Z,55
2022-10-23T03:24:10.110Z,49
2022-10-23T03:25:14.178Z,48
2022-10-23T03:26:18.350Z,47
2022-10-23T03:27:22.518Z,57
2022-10-23T03:28:26.753Z,45
2022-10-23T03:29:30.907Z,50
2022-10-23T03:30:34.925Z,42
2022-10-23T03:31:39.139Z,57
2022-10-23T03:32:44.091Z,53
2022-10-23T03:33:47.753Z,49
2022-10-23T03:34:52.010Z,52
2022-10-23T03:35:56.523Z,45
2022-10-23T03:37:00.622Z,47
2022-10-23T03:38:04.753Z,52
2022-10-23T03:39:08.903Z,45
2022-10-23T03:40:13.358Z,52
2022-10-23T03:41:17.461Z,48
2022-10-23T03:42:21.642Z,51
2022-10-23T03:43:25.759Z,44
2022-10-23T03:44:30.195Z,42
2022-10-23T03:45:34.689Z,38
2022-10-23T03:46:38.765Z,52
2022-10-23T03:47:43.212Z,37
2022-10-23T03:48:47.445Z,46
2022-10-23T03:49:51.650Z,42
2022-10-23T03:50:55.670Z,49
2022-10-23T03:51:59.806Z,42
2022-10-23T03:53:03.945Z,45
2022-10-23T03:54:08.002Z,48
2022-10-23T03:55:12.074Z,47
2022-10-23T03:56:16.295Z,49
2022-10-23T03:57:20.477Z,50
2022-10-23T03:58:24.941Z,44
2022-10-23T03:59:29.413Z,54
2022-10-23T04:00:34.046Z,47
2022-10-23T04:01:38.229Z,44
2022-10-23T04:02:42.528Z,41
2022-10-23T04:03:46.833Z,37
2022-10-23T04:04:51.533Z,43
2022-10-23T04:05:56.033Z,39
2022-10-23T04:07:00.147Z,41
2022-10-23T04:08:04.184Z,44
2022-10-23T04:09:08.360Z,44
2022-10-23T04:10:12.419Z,45
2022-10-23T04:11:16.582Z,41
2022-10-23T04:12:20.691Z,41
2022-10-23T04:13:24.750Z,43
2022-10-23T04:14:29.134Z,49
2022-10-23T04:15:33.297Z,45
2022-10-23T04:16:37.314Z,42
2022-10-23T04:17:41.448Z,48
2022-10-23T04:18:45.505Z,47
2022-10-23T04:19:49.702Z,39
2022-10-23T04:20:53.854Z,46
2022-10-23T04:21:57.886Z,45
2022-10-23T04:23:02.075Z,46
2022-10-23T04:24:06.494Z,48
2022-10-23T04:25:10.687Z,45
2022-10-23T04:26:14.814Z,46
2022-10-23T04:27:18.837Z,51
2022-10-23T04:28:22.933Z,51
2022-10-23T04:29:27.314Z,48
2022-10-23T04:30:31.415Z,45
2022-10-23T04:31:35.526Z,51
2022-10-23T04:32:39.601Z,55
2022-10-23T04:33:43.762Z,45
2022-10-23T04:34:47.794Z,53
2022-10-23T04:35:52.057Z,53
2022-10-23T04:36:56.706Z,48
2022-10-23T04:38:01.282Z,51
2022-10-23T04:39:05.746Z,41
2022-10-23T04:40:09.813Z,55
2022-10-23T04:41:13.966Z,59
2022-10-23T04:42:18.158Z,54
2022-10-23T04:43:22.193Z,49
2022-10-23T04:44:26.713Z,56
2022-10-23T04:45:31.117Z,55
2022-10-23T04:46:35.234Z,58
2022-10-23T04:47:40.046Z,54
2022-10-23T04:48:44.343Z,56
2022-10-23T04:49:48.469Z,49
2022-10-23T04:50:52.532Z,52
2022-10-23T04:51:56.607Z,46
2022-10-23T04:53:00.791Z,51
2022-10-23T04:54:04.919Z,58
2022-10-23T04:55:09.455Z,54
2022-10-23T04:56:13.548Z,51
2022-10-23T04:57:17.799Z,56
2022-10-23T04:58:22.195Z,52
2022-10-23T04:59:26.349Z,59
2022-10-23T05:00:30.696Z,58
2022-10-23T05:01:34.881Z,57
2022-10-23T05:02:38.872Z,47
2022-10-23T05:03:42.919Z,58
2022-10-23T05:04:47.041Z,59
2022-10-23T05:05:51.232Z,54
2022-10-23T05:06:55.223Z,57
2022-10-23T05:07:59.315Z,53
2022-10-23T05:09:03.495Z,62
2022-10-23T05:10:07.552Z,60
2022-10-23T05:11:11.757Z,62
2022-10-23T05:12:15.846Z,69
2022-10-23T05:13:19.985Z,64
2022-10-23T05:14:24.043Z,56
2022-10-23T05:15:28.299Z,66
2022-10-23T05:16:32.415Z,66
2022-10-23T05:17:41.946Z,62
2022-10-23T05:18:45.731Z,66
2022-10-23T05:19:49.832Z,66
2022-10-23T05:20:57.076Z,66
2022-10-23T05:22:06.624Z,63
2022-10-23T05:23:10.831Z,68
2022-10-23T05:24:14.863Z,64
2022-10-23T05:25:19.043Z,59
2022-10-23T05:26:23.191Z,59
2022-10-23T05:27:27.204Z,73
2022-10-23T05:28:31.607Z,75
2022-10-23T05:29:35.695Z,66
2022-10-23T05:30:39.728Z,63
2022-10-23T05:31:43.919Z,65
2022-10-23T05:32:48.063Z,62
2022-10-23T05:33:52.683Z,57
2022-10-23T05:34:57.271Z,64
2022-10-23T05:36:01.462Z,62
2022-10-23T05:37:05.927Z,62
2022-10-23T05:38:10.015Z,63
2022-10-23T05:39:13.997Z,74
2022-10-23T05:40:18.163Z,65
2022-10-23T05:41:22.243Z,62
2022-10-23T05:42:26.263Z,71
2022-10-23T05:43:30.735Z,66
2022-10-23T05:44:34.919Z,74
2022-10-23T05:45:39.576Z,65
2022-10-23T05:46:44.065Z,59
2022-10-23T05:47:48.259Z,60
2022-10-23T05:48:52.351Z,62
2022-10-23T05:49:56.435Z,60
2022-10-23T05:51:00.932Z,67
2022-10-23T05:52:08.129Z,64
2022-10-23T05:53:12.083Z,68
2022-10-23T05:54:16.275Z,67
2022-10-23T05:55:20.523Z,66
2022-10-23T05:56:24.547Z,65
2022-10-23T05:57:28.890Z,66
2022-10-23T05:58:33.067Z,73
2022-10-23T05:59:37.556Z,73
2022-10-23T06:00:41.707Z,75
2022-10-23T06:01:45.973Z,77
2022-10-23T06:02:49.887Z,76
2022-10-23T06:03:53.961Z,65
2022-10-23T06:04:58.144Z,75
2022-10-23T06:06:02.259Z,67
2022-10-23T06:07:06.732Z,61
2022-10-23T06:08:10.947Z,68
2022-10-23T06:09:15.459Z,64
2022-10-23T06:10:19.563Z,63
2022-10-23T06:11:23.863Z,62
2022-10-23T06:12:28.045Z,63
2022-10-23T06:13:32.197Z,63
2022-10-23T06:14:36.231Z,73
2022-10-23T06:15:40.395Z,65
2022-10-23T06:16:44.492Z,63
2022-10-23T06:17:49.047Z,72
2022-10-23T06:18:53.287Z,64
2022-10-23T06:19:57.351Z,64
2022-10-23T06:21:01.484Z,68
2022-10-23T06:22:05.573Z,60
2022-10-23T06:23:09.712Z,61
2022-10-23T06:24:13.823Z,59
2022-10-23T06:25:17.855Z,57
2022-10-23T06:26:22.166Z,55
2022-10-23T06:27:26.719Z,54
2022-10-23T06:28:30.915Z,59
2022-10-23T06:29:35.002Z,66
2022-10-23T06:30:39.231Z,60
2022-10-23T06:31:43.722Z,58
2022-10-23T06:32:47.877Z,63
2022-10-23T06:33:51.951Z,61
2022-10-23T06:34:56.103Z,66
2022-10-23T06:36:00.205Z,64
2022-10-23T06:37:04.855Z,70
2022-10-23T06:38:09.021Z,79
2022-10-23T06:39:13.479Z,71
2022-10-23T06:40:17.719Z,75
2022-10-23T06:41:21.799Z,84
2022-10-23T06:42:26.385Z,77
2022-10-23T06:43:30.808Z,80
2022-10-23T06:44:35.275Z,72
2022-10-23T06:45:39.413Z,74
2022-10-23T06:46:43.475Z,65
2022-10-23T06:47:50.684Z,73
2022-10-23T06:48:54.781Z,65
2022-10-23T06:49:58.854Z,65
2022-10-23T06:51:02.974Z,68
2022-10-23T06:52:10.951Z,67
2022-10-23T06:53:11.695Z,72
2022-10-23T06:54:15.772Z,62
2022-10-23T06:55:20.120Z,62
2022-10-23T06:56:24.565Z,70
2022-10-23T06:57:28.616Z,57
2022-10-23T06:58:33.169Z,54
2022-10-23T06:59:37.615Z,54
2022-10-23T07:00:41.702Z,57
2022-10-23T07:01:46.084Z,53
2022-10-23T07:02:50.039Z,52
2022-10-23T07:03:54.113Z,57
2022-10-23T07:04:58.271Z,55
2022-10-23T07:06:02.827Z,51
2022-10-23T07:07:07.537Z,51
2022-10-23T07:08:12.187Z,54
2022-10-23T07:09:16.799Z,46
2022-10-23T07:10:21.403Z,42
2022-10-23T07:11:25.987Z,43
2022-10-23T07:12:30.332Z,47
2022-10-23T07:13:34.644Z,52
2022-10-23T07:14:38.999Z,48
2022-10-23T07:15:43.083Z,46
2022-10-23T07:16:47.172Z,46
2022-10-23T07:17:51.371Z,53
2022-10-23T07:18:55.440Z,43
2022-10-23T07:20:02.112Z,57
2022-10-23T07:21:06.715Z,50
2022-10-23T07:22:11.997Z,51
2022-10-23T07:23:14.862Z,56
2022-10-23T07:24:19.072Z,47
2022-10-23T07:25:23.262Z,51
2022-10-23T07:26:27.272Z,40
2022-10-23T07:27:31.573Z,43
2022-10-23T07:28:38.830Z,54
2022-10-23T07:29:42.915Z,49
2022-10-23T07:30:47.068Z,50
2022-10-23T07:31:56.779Z,54
2022-10-23T07:33:00.829Z,55
2022-10-23T07:34:04.919Z,57
2022-10-23T07:35:09.214Z,52
2022-10-23T07:36:13.182Z,63
2022-10-23T07:37:17.259Z,63
2022-10-23T07:38:21.447Z,67
2022-10-23T07:39:25.507Z,62
2022-10-23T07:40:29.623Z,60
2022-10-23T07:41:33.856Z,55
2022-10-23T07:42:38.027Z,60
2022-10-23T07:43:42.103Z,59
2022-10-23T07:44:46.223Z,59
2022-10-23T07:45:50.337Z,62
2022-10-23T07:46:54.398Z,57
2022-10-23T07:47:58.597Z,61
2022-10-23T07:49:02.647Z,57
2022-10-23T07:50:06.711Z,61
2022-10-23T07:51:10.959Z,62
2022-10-23T07:52:15.007Z,60
2022-10-23T07:53:19.474Z,62
2022-10-23T07:54:23.656Z,59
2022-10-23T07:55:27.727Z,59
2022-10-23T07:56:32.200Z,49
2022-10-23T07:57:36.440Z,42
2022-10-23T07:58:40.863Z,47
2022-10-23T07:59:45.035Z,45
2022-10-23T08:00:49.115Z,52
2022-10-23T08:02:01.556Z,53
2022-10-23T08:03:05.628Z,45
2022-10-23T08:04:09.619Z,52
2022-10-23T08:05:13.715Z,44
2022-10-23T08:06:17.903Z,47
2022-10-23T08:07:21.967Z,38
2022-10-23T08:08:26.078Z,43
2022-10-23T08:09:30.337Z,43
2022-10-23T08:10:34.547Z,43
2022-10-23T08:11:38.671Z,37
2022-10-23T08:12:42.985Z,39
2022-10-23T08:13:46.906Z,44
2022-10-23T08:14:51.098Z,38
2022-10-23T08:15:55.279Z,38
2022-10-23T08:16:59.900Z,39
2022-10-23T08:18:04.007Z,44
2022-10-23T08:19:08.475Z,39
2022-10-23T08:20:12.531Z,48
2022-10-23T08:21:16.644Z,38
2022-10-23T08:22:20.791Z,43
2022-10-23T08:23:24.990Z,44
2022-10-23T08:24:29.162Z,39
2022-10-23T08:25:33.461Z,43
2022-10-23T08:26:37.566Z,34
2022-10-23T08:27:41.970Z,37
2022-10-23T08:28:45.770Z,35
2022-10-23T08:29:49.898Z,39
2022-10-23T08:30:54.038Z,39
2022-10-23T08:31:58.184Z,35
2022-10-23T08:33:02.248Z,34
2022-10-23T08:34:06.407Z,38
2022-10-23T08:35:10.578Z,30
2022-10-23T08:36:15.011Z,30
2022-10-23T08:37:21.819Z,28
2022-10-23T08:38:25.806Z,25
2022-10-23T08:39:30.123Z,30
2022-10-23T08:40:34.375Z,36
2022-10-23T08:41:38.647Z,28
2022-10-23T08:42:43.395Z,30
2022-10-23T08:43:47.467Z,30
2022-10-23T08:44:54.559Z,28
2022-10-23T08:46:08.565Z,32
2022-10-23T08:47:10.914Z,25
2022-10-23T08:48:25.678Z,28
2022-10-23T08:49:32.523Z,26
2022-10-23T08:50:44.923Z,25
2022-10-23T08:51:49.478Z,25
2022-10-23T08:52:53.614Z,33
2022-10-23T08:54:03.316Z,28
2022-10-23T08:55:07.439Z,28
2022-10-23T08:56:16.844Z,27
2022-10-23T08:57:23.898Z,29
2022-10-23T08:58:27.890Z,25
2022-10-23T08:59:35.422Z,28
2022-10-23T09:00:39.583Z,29
2022-10-23T09:01:43.954Z,28
2022-10-23T09:02:48.290Z,28
2022-10-23T09:03:52.378Z,26
2022-10-23T09:04:56.710Z,29
2022-10-23T09:06:00.583Z,28
2022-10-23T09:08:22.458Z,32
2022-10-23T09:09:26.626Z,25
2022-10-23T09:10:33.635Z,27
2022-10-23T09:11:42.911Z,31
2022-10-23T09:12:50.159Z,26
2022-10-23T09:13:54.242Z,26
2022-10-23T09:15:01.380Z,27
2022-10-23T09:16:08.119Z,26
2022-10-23T09:17:17.245Z,25
2022-10-23T09:18:23.951Z,30
2022-10-23T09:19:28.120Z,30
2022-10-23T09:20:32.166Z,33
2022-10-23T09:21:36.550Z,33
2022-10-23T09:22:40.686Z,26
2022-10-23T09:23:44.870Z,30
2022-10-23T09:24:52.870Z,26
2022-10-23T09:25:52.963Z,26
2022-10-23T09:26:57.314Z,27
2022-10-23T09:28:05.171Z,26
2022-10-23T09:29:05.915Z,27
2022-10-23T09:30:10.010Z,26
2022-10-23T09:31:14.554Z,25
2022-10-23T09:32:18.721Z,25
2022-10-23T09:33:33.271Z,29
2022-10-23T09:34:37.330Z,28
2022-10-23T09:35:41.686Z,31
2022-10-23T09:38:00.431Z,30
2022-10-23T09:39:04.619Z,29
2022-10-23T09:40:08.614Z,32
2022-10-23T09:41:17.874Z,30
2022-10-23T09:42:27.059Z,34
2022-10-23T09:43:31.174Z,31
2022-10-23T09:44:35.522Z,30
2022-10-23T09:45:39.558Z,31
2022-10-23T09:46:43.814Z,30
2022-10-23T09:47:47.987Z,25
2022-10-23T09:48:52.455Z,36
2022-10-23T09:49:59.702Z,38
2022-10-23T09:51:03.826Z,28
2022-10-23T09:52:16.571Z,37
2022-10-23T09:53:23.777Z,36
2022-10-23T09:54:27.790Z,35
2022-10-23T09:55:31.959Z,36
2022-10-23T09:56:36.470Z,33
2022-10-23T09:57:40.678Z,29
2022-10-23T09:58:44.568Z,33
2022-10-23T09:59:53.831Z,29
2022-10-23T10:00:58.046Z,33
2022-10-23T10:02:02.352Z,27
2022-10-23T10:03:06.611Z,25
2022-10-23T10:04:10.762Z,30
2022-10-23T10:05:14.863Z,27
2022-10-23T10:06:29.489Z,25
2022-10-23T10:07:34.809Z,26
2022-10-23T10:08:37.674Z,34
2022-10-23T10:09:42.098Z,28
2022-10-23T10:10:46.486Z,28
2022-10-23T10:11:55.758Z,25
2022-10-23T10:13:10.864Z,25
2022-10-23T10:14:20.335Z,33
2022-10-23T10:15:32.923Z,28
2022-10-23T10:16:45.397Z,29
2022-10-23T10:17:59.966Z,39
2022-10-23T10:19:14.368Z,34
2022-10-23T10:20:21.707Z,30
2022-10-23T10:21:33.835Z,26
2022-10-23T10:22:46.274Z,31
2022-10-23T10:24:00.933Z,27
2022-10-23T10:25:13.414Z,26
2022-10-23T10:27:42.961Z,30
2022-10-23T10:28:57.826Z,36
2022-10-23T10:30:12.528Z,33
2022-10-23T10:31:16.666Z,27
2022-10-23T10:32:25.934Z,30
2022-10-23T10:33:40.508Z,25
2022-10-23T10:34:50.119Z,25
2022-10-23T10:35:59.502Z,27
2022-10-23T10:37:03.495Z,25
2022-10-23T10:38:15.970Z,30
2022-10-23T10:39:22.926Z,25
2022-10-23T10:40:37.586Z,27
2022-10-23T10:41:49.926Z,30
2022-10-23T10:42:53.966Z,25
2022-10-23T10:44:08.377Z,25
2022-10-23T10:45:18.146Z,29
2022-10-23T10:46:30.818Z,25
2022-10-23T10:47:43.553Z,37
2022-10-23T10:48:52.667Z,33
2022-10-23T10:50:02.494Z,34
2022-10-23T10:51:17.258Z,25
2022-10-23T10:52:31.938Z,27
2022-10-23T10:53:39.013Z,30
2022-10-23T10:54:53.858Z,26
2022-10-23T10:56:03.533Z,27
2022-10-23T10:57:07.648Z,29
2022-10-23T10:58:14.844Z,31
2022-10-23T10:59:24.527Z,29
2022-10-23T11:00:31.758Z,36
2022-10-23T11:01:36.192Z,38
2022-10-23T11:02:48.342Z,28
2022-10-23T11:03:52.453Z,25
2022-10-23T11:05:04.929Z,28
2022-10-23T11:06:19.682Z,33
2022-10-23T11:07:23.794Z,33
2022-10-23T11:08:28.231Z,27
2022-10-23T11:09:37.838Z,31
2022-10-23T11:10:42.054Z,38
2022-10-23T11:11:46.191Z,37
2022-10-23T11:12:50.644Z,32
2022-10-23T11:13:54.766Z,40
2022-10-23T11:14:58.906Z,31
2022-10-23T11:16:02.966Z,27
2022-10-23T11:17:12.175Z,26
2022-10-23T11:18:26.494Z,25
2022-10-23T11:19:30.664Z,25
2022-10-23T11:20:38.074Z,25
2022-10-23T11:21:50.589Z,26
2022-10-23T11:23:00.155Z,33
2022-10-23T11:25:19.190Z,25
2022-10-23T11:26:33.922Z,27
2022-10-23T11:27:44.831Z,25
2022-10-23T11:28:54.270Z,28
2022-10-23T11:30:03.886Z,26
2022-10-23T11:31:18.293Z,33
2022-10-23T11:33:43.942Z,25
2022-10-23T11:34:52.287Z,37
2022-10-23T11:36:04.490Z,50
2022-10-23T11:37:16.982Z,45
2022-10-23T11:38:20.954Z,50
2022-10-23T11:39:27.732Z,44
2022-10-23T11:40:32.493Z,48
2022-10-23T11:41:36.618Z,43
2022-10-23T11:42:40.998Z,45
2022-10-23T11:43:44.771Z,46
2022-10-23T11:44:56.586Z,45
2022-10-23T11:46:00.618Z,46
2022-10-23T11:47:15.093Z,39
2022-10-23T11:48:29.878Z,35
2022-10-23T11:49:37.279Z,37
2022-10-23T11:50:41.455Z,40
2022-10-23T11:51:45.526Z,43
2022-10-23T11:52:50.545Z,41
2022-10-23T11:53:53.826Z,40
2022-10-23T11:55:06.126Z,44
2022-10-23T11:56:18.430Z,44
2022-10-23T11:57:25.561Z,43
2022-10-23T11:58:29.642Z,36
2022-10-23T11:59:44.214Z,40
2022-10-23T12:00:48.359Z,47
2022-10-23T12:02:00.721Z,34
2022-10-23T12:03:04.804Z,33
2022-10-23T12:04:08.887Z,31
2022-10-23T12:05:16.266Z,40
2022-10-23T12:06:28.863Z,38
2022-10-23T12:07:33.123Z,28
2022-10-23T12:08:37.256Z,27
2022-10-23T12:09:41.426Z,37
2022-10-23T12:10:45.762Z,32
2022-10-23T12:11:50.211Z,25
2022-10-23T12:13:02.899Z,31
2022-10-23T12:14:07.137Z,33
2022-10-23T12:15:21.928Z,28
2022-10-23T12:16:26.023Z,26
2022-10-23T12:17:35.270Z,25
2022-10-23T12:18:39.610Z,39
2022-10-23T12:19:48.871Z,31
2022-10-23T12:20:52.944Z,27
2022-10-23T12:22:02.185Z,32
2022-10-23T12:23:06.327Z,37
2022-10-23T12:24:16.646Z,39
2022-10-23T12:25:25.886Z,39
2022-10-23T12:26:36.098Z,41
2022-10-23T12:27:43.893Z,38
2022-10-23T12:28:55.906Z,42
2022-10-23T12:30:00.515Z,40
2022-10-23T12:31:15.186Z,39
2022-10-23T12:32:27.466Z,45
2022-10-23T12:33:36.758Z,36
2022-10-23T12:34:43.730Z,39
2022-10-23T12:35:53.429Z,40
2022-10-23T12:37:02.711Z,38
2022-10-23T12:38:17.528Z,39
2022-10-23T12:39:26.754Z,41
2022-10-23T12:40:31.175Z,36
2022-10-23T12:41:35.599Z,43
2022-10-23T12:42:39.785Z,45
2022-10-23T12:43:43.737Z,43
2022-10-23T12:44:56.250Z,44
2022-10-23T12:46:03.226Z,44
2022-10-23T12:47:15.473Z,43
2022-10-23T12:48:19.645Z,41
2022-10-23T12:49:23.749Z,45
2022-10-23T12:50:27.901Z,44
2022-10-23T12:51:32.438Z,40
2022-10-23T12:52:36.503Z,41
2022-10-23T12:53:41.071Z,37
2022-10-23T12:54:45.174Z,36
2022-10-23T12:55:49.323Z,32
2022-10-23T12:56:58.931Z,42
2022-10-23T12:58:03.125Z,35
2022-10-23T12:59:07.182Z,43
2022-10-23T13:00:11.254Z,38
2022-10-23T13:01:15.981Z,44
2022-10-23T13:02:25.858Z,49
2022-10-23T13:03:30.225Z,45
2022-10-23T13:04:34.338Z,47
2022-10-23T13:05:38.706Z,49
2022-10-23T13:06:42.865Z,42
2022-10-23T13:07:47.205Z,45
2022-10-23T13:08:51.592Z,42
2022-10-23T13:09:55.872Z,39
2022-10-23T13:10:59.801Z,54
2022-10-23T13:12:03.905Z,45
2022-10-23T13:13:08.655Z,43
2022-10-23T13:14:12.730Z,37
2022-10-23T13:15:16.807Z,49
2022-10-23T13:16:21.406Z,49
2022-10-23T13:17:25.571Z,47
2022-10-23T13:18:34.818Z,51
2022-10-23T13:19:39.065Z,48
2022-10-23T13:20:43.206Z,61
2022-10-23T13:21:52.470Z,53
2022-10-23T13:22:57.793Z,60
2022-10-23T13:24:00.845Z,57
2022-10-23T13:25:05.500Z,63
2022-10-23T13:26:20.154Z,56
2022-10-23T13:27:29.421Z,56
2022-10-23T13:28:33.537Z,49
2022-10-23T13:29:43.474Z,56
2022-10-23T13:30:47.545Z,55
2022-10-23T13:32:02.414Z,58
2022-10-23T13:33:11.693Z,64
2022-10-23T13:34:23.962Z,58
2022-10-23T13:35:31.118Z,57
2022-10-23T13:36:35.130Z,54
2022-10-23T13:37:39.585Z,54
2022-10-23T13:38:43.926Z,61
2022-10-23T13:39:48.306Z,58
2022-10-23T13:41:00.677Z,60
2022-10-23T13:42:07.398Z,63
2022-10-23T13:43:14.388Z,64
2022-10-23T13:44:18.635Z,57
2022-10-23T13:45:22.728Z,62
2022-10-23T13:46:26.861Z,59
2022-10-23T13:47:31.361Z,61
2022-10-23T13:48:35.597Z,66
2022-10-23T13:49:39.894Z,64
2022-10-23T13:50:44.022Z,70
2022-10-23T13:51:48.111Z,68
2022-10-23T13:52:52.242Z,67
2022-10-23T13:53:56.421Z,72
2022-10-23T13:55:00.605Z,68
2022-10-23T13:56:05.182Z,69
2022-10-23T13:57:09.382Z,70
2022-10-23T13:58:13.867Z,66
2022-10-23T13:59:18.074Z,63
2022-10-23T14:00:22.125Z,67
2022-10-23T14:01:26.439Z,64
2022-10-23T14:02:30.591Z,70
2022-10-23T14:03:34.518Z,65
2022-10-23T14:04:38.541Z,73
2022-10-23T14:05:42.878Z,77
2022-10-23T14:06:47.042Z,71
2022-10-23T14:07:51.177Z,82
2022-10-23T14:08:55.239Z,77
2022-10-23T14:09:59.310Z,81
2022-10-23T14:11:03.580Z,77
2022-10-23T14:12:07.678Z,84
2022-10-23T14:13:11.741Z,80
2022-10-23T14:14:15.896Z,83
2022-10-23T14:15:19.925Z,79
2022-10-23T14:16:24.045Z,86
2022-10-23T14:17:28.281Z,85
2022-10-23T14:18:32.281Z,84
2022-10-23T14:20:40.725Z,81
2022-10-23T14:21:45.089Z,79
2022-10-23T14:22:49.543Z,89
2022-10-23T14:23:53.601Z,90
2022-10-23T14:24:57.697Z,93
2022-10-23T14:26:01.889Z,93
2022-10-23T14:27:05.998Z,92
2022-10-23T14:28:10.122Z,97
2022-10-23T14:29:19.983Z,94
2022-10-23T14:30:18.409Z,92
2022-10-23T14:31:22.875Z,99
2022-10-23T14:32:27.037Z,96
2022-10-23T14:33:31.161Z,100
2022-10-23T14:34:35.169Z,102
2022-10-23T14:35:39.280Z,99
2022-10-23T14:36:49.995Z,99
2022-10-23T14:37:48.465Z,104
2022-10-23T14:38:55.607Z,102
2022-10-23T14:39:57.130Z,96
2022-10-23T14:41:01.325Z,107
2022-10-23T14:42:05.399Z,107
2022-10-23T14:43:09.433Z,110
2022-10-23T14:44:13.683Z,108
2022-10-23T14:45:18.045Z,113
2022-10-23T14:46:22.255Z,120
2022-10-23T14:47:26.442Z,117
2022-10-23T14:48:30.773Z,118
2022-10-23T14:49:35.241Z,120
2022-10-23T14:50:39.410Z,122
2022-10-23T14:51:43.818Z,125
2022-10-23T14:52:47.984Z,126
2022-10-23T14:53:52.218Z,123
2022-10-23T14:54:59.145Z,119
2022-10-23T14:56:03.211Z,121
2022-10-23T14:57:07.347Z,117
2022-10-23T14:58:11.571Z,120
2022-10-23T14:59:15.693Z,119
2022-10-23T15:00:19.866Z,115
2022-10-23T15:01:24.214Z,118
2022-10-23T15:02:28.557Z,122
2022-10-23T15:03:32.639Z,118
2022-10-23T15:04:36.825Z,125
2022-10-23T15:05:41.481Z,116
2022-10-23T15:06:45.845Z,115
2022-10-23T15:07:49.890Z,120
2022-10-23T15:08:53.941Z,112
2022-10-23T15:09:58.159Z,116
2022-10-23T15:11:02.218Z,123
2022-10-23T15:12:06.568Z,119
2022-10-23T15:13:11.097Z,127
2022-10-23T15:14:15.618Z,114
2022-10-23T15:15:19.821Z,118
2022-10-23T15:16:23.902Z,123
2022-10-23T15:17:27.973Z,117
2022-10-23T15:18:32.255Z,121
2022-10-23T15:19:36.761Z,120
2022-10-23T15:20:40.861Z,119
2022-10-23T15:21:45.302Z,128
2022-10-23T15:22:49.369Z,119
2022-10-23T15:23:53.534Z,128
2022-10-23T15:24:57.625Z,122
2022-10-23T15:26:01.757Z,124
2022-10-23T15:27:05.929Z,124
2022-10-23T15:28:10.148Z,124
2022-10-23T15:29:14.826Z,120
2022-10-23T15:30:18.744Z,124
2022-10-23T15:31:22.834Z,122
2022-10-23T15:32:30.101Z,119
2022-10-23T15:33:34.121Z,122
2022-10-23T15:34:38.277Z,115
2022-10-23T15:35:42.451Z,114
2022-10-23T15:36:46.808Z,113
2022-10-23T15:37:50.925Z,117
2022-10-23T15:38:55.110Z,118
2022-10-23T15:40:01.190Z,114
2022-10-23T15:41:03.177Z,122